Time;durP1;ratioP1;P1;durP2;ratioP2;P2;SDS_P1;SDS_P2;PMS_P1;PMS_P2;Temp;Humidity;BMP_temperature;BMP_pressure;BME280_temperature;BME280_humidity;BME280_pressure;Samples;Min_cycle;Max_cycle;Signal;HPM_P1;HPM_P2
2023/05/15 00:00:59;;;;;;;;;;;12.70;72.60;;;;;;5034604;28;87372;-41
2023/05/15 00:03:25;;;;;;;;;;;12.70;72.60;;;;;;5035388;28;87335;-42
2023/05/15 00:05:51;;;;;;;;;;;12.70;72.70;;;;;;5031448;27;87365;-42
2023/05/15 00:08:16;;;;;;;;;;;12.70;72.70;;;;;;5033993;28;90600;-42
2023/05/15 00:10:42;;;;;;;;;;;12.70;72.60;;;;;;5032991;28;88076;-42
2023/05/15 00:13:08;;;;;;;;;;;12.70;72.60;;;;;;5034357;28;87300;-42
2023/05/15 00:15:33;;;;;;;;;;;12.70;72.70;;;;;;5033057;28;88221;-41
2023/05/15 00:17:59;;;;;;;;;;;12.70;72.70;;;;;;5033899;28;86994;-42
2023/05/15 00:20:24;;;;;;;;;;;12.70;72.70;;;;;;5033545;28;87510;-42
2023/05/15 00:22:50;;;;;;;;;;;12.70;72.60;;;;;;5036263;28;88784;-42
2023/05/15 00:25:15;;;;;;;;;;;12.60;72.60;;;;;;5034478;28;87731;-42
2023/05/15 00:27:41;;;;;;;;;;;12.70;72.90;;;;;;5032617;28;87932;-42
2023/05/15 00:30:06;;;;;;;;;;;12.70;72.70;;;;;;5035070;28;87110;-42
2023/05/15 00:32:32;;;;;;;;;;;12.70;72.50;;;;;;5032652;28;88331;-42
2023/05/15 00:34:57;;;;;;;;;;;12.70;72.80;;;;;;5035043;28;87702;-41
2023/05/15 00:37:23;;;;;;;;;;;12.70;72.60;;;;;;5032578;28;87101;-42
2023/05/15 00:39:49;;;;;;;;;;;12.70;72.60;;;;;;5036003;28;87588;-42
2023/05/15 00:42:16;;;;;;;;;;;12.70;72.80;;;;;;5031016;28;89489;-42
2023/05/15 00:44:42;;;;;;;;;;;12.70;72.60;;;;;;5031042;28;87886;-42
2023/05/15 00:47:09;;;;;;;;;;;12.60;72.70;;;;;;5027375;28;87094;-42
2023/05/15 00:49:36;;;;;;;;;;;12.60;72.70;;;;;;5028099;28;86647;-42
2023/05/15 00:52:02;;;;;;;;;;;12.60;72.70;;;;;;5035436;28;88232;-42
2023/05/15 00:54:28;;;;;;;;;;;12.60;72.70;;;;;;5030771;28;89434;-42
2023/05/15 00:56:55;;;;;;;;;;;12.60;72.70;;;;;;5034466;28;88132;-42
2023/05/15 00:59:21;;;;;;;;;;;12.60;72.70;;;;;;5031634;27;88343;-41
2023/05/15 01:01:47;;;;;;;;;;;12.60;72.60;;;;;;5033066;28;89470;-42
2023/05/15 01:04:12;;;;;;;;;;;12.60;72.70;;;;;;5032121;28;87713;-42
2023/05/15 01:06:38;;;;;;;;;;;12.60;72.70;;;;;;5036526;28;88636;-41
2023/05/15 01:09:04;;;;;;;;;;;12.60;72.60;;;;;;5032701;28;87033;-42
2023/05/15 01:11:34;;;;;;;;;;;12.60;72.70;;;;;;5033453;28;87285;-41
2023/05/15 01:14:04;;;;;;;;;;;12.60;72.60;;;;;;5032633;28;88963;-42
2023/05/15 01:16:30;;;;;;;;;;;12.60;72.50;;;;;;5034048;28;87345;-42
2023/05/15 01:18:55;;;;;;;;;;;12.60;72.60;;;;;;5032467;27;87397;-41
2023/05/15 01:21:31;;;;;;;;;;;12.60;72.50;;;;;;5032678;28;89125;-42
2023/05/15 01:24:02;;;;;;;;;;;12.60;72.70;;;;;;5027461;28;86949;-41
2023/05/15 01:26:43;;;;;;;;;;;12.60;72.60;;;;;;5028214;28;89013;-42
2023/05/15 01:29:13;;;;;;;;;;;12.60;72.60;;;;;;5035348;28;88077;-42
2023/05/15 01:31:40;;;;;;;;;;;12.60;72.70;;;;;;5033851;28;87168;-41
2023/05/15 01:34:07;;;;;;;;;;;12.60;72.60;;;;;;5031998;28;88320;-42
2023/05/15 01:36:45;;;;;;;;;;;12.50;72.70;;;;;;5033258;28;87145;-42
2023/05/15 01:39:12;;;;;;;;;;;12.50;72.70;;;;;;5027715;28;89229;-41
2023/05/15 01:41:44;;;;;;;;;;;12.50;72.70;;;;;;5026592;28;88708;-42
2023/05/15 01:44:18;;;;;;;;;;;12.50;72.70;;;;;;5028131;28;87233;-42
2023/05/15 01:46:47;;;;;;;;;;;12.50;72.60;;;;;;5032605;28;89103;-42
2023/05/15 01:49:14;;;;;;;;;;;12.60;72.60;;;;;;5032002;28;88253;-42
2023/05/15 01:51:41;;;;;;;;;;;12.60;72.70;;;;;;5036064;28;87193;-42
2023/05/15 01:54:07;;;;;;;;;;;12.50;72.60;;;;;;5032199;28;88232;-42
2023/05/15 01:56:34;;;;;;;;;;;12.50;72.70;;;;;;5033354;28;87157;-42
2023/05/15 01:59:01;;;;;;;;;;;12.50;72.60;;;;;;5032193;28;87313;-41
2023/05/15 02:01:28;;;;;;;;;;;12.50;72.50;;;;;;5032616;28;89500;-42
2023/05/15 02:03:54;;;;;;;;;;;12.50;72.50;;;;;;5031915;28;86394;-41
2023/05/15 02:06:20;;;;;;;;;;;12.50;72.50;;;;;;5033599;27;87285;-42
2023/05/15 02:08:46;;;;;;;;;;;12.50;72.70;;;;;;5031307;28;88138;-42
2023/05/15 02:11:12;;;;;;;;;;;12.50;72.70;;;;;;5035637;28;88022;-42
2023/05/15 02:13:39;;;;;;;;;;;12.50;72.70;;;;;;5030815;28;87586;-41
2023/05/15 02:16:05;;;;;;;;;;;12.50;72.70;;;;;;5033640;28;87134;-41
2023/05/15 02:18:30;;;;;;;;;;;12.50;72.80;;;;;;5031207;28;87692;-42
2023/05/15 02:20:56;;;;;;;;;;;12.50;72.60;;;;;;5034010;28;87220;-42
2023/05/15 02:23:21;;;;;;;;;;;12.50;72.60;;;;;;5030445;28;87034;-42
2023/05/15 02:26:07;;;;;;;;;;;12.50;72.80;;;;;;5033503;28;88784;-42
2023/05/15 02:28:35;;;;;;;;;;;12.50;72.60;;;;;;5030712;28;87864;-42
2023/05/15 02:31:05;;;;;;;;;;;12.50;72.70;;;;;;5031203;28;86992;-42
2023/05/15 02:33:37;;;;;;;;;;;12.50;72.80;;;;;;5033226;28;87936;-42
2023/05/15 02:36:07;;;;;;;;;;;12.50;72.60;;;;;;5030635;28;87998;-42
2023/05/15 02:38:43;;;;;;;;;;;12.50;72.60;;;;;;5034135;28;88296;-41
2023/05/15 02:41:09;;;;;;;;;;;12.50;72.70;;;;;;5027630;28;87674;-42
2023/05/15 02:43:35;;;;;;;;;;;12.50;72.60;;;;;;5033583;28;87053;-42
2023/05/15 02:46:01;;;;;;;;;;;12.50;72.50;;;;;;5030466;28;87418;-42
2023/05/15 02:48:27;;;;;;;;;;;12.50;72.40;;;;;;5032938;28;88323;-42
2023/05/15 02:50:53;;;;;;;;;;;12.50;72.60;;;;;;5030019;28;87444;-42
2023/05/15 02:53:18;;;;;;;;;;;12.50;72.50;;;;;;5034002;28;86631;-41
2023/05/15 02:55:44;;;;;;;;;;;12.40;72.50;;;;;;5032552;28;87335;-42
2023/05/15 02:58:09;;;;;;;;;;;12.50;72.70;;;;;;5033575;28;86976;-42
2023/05/15 03:00:35;;;;;;;;;;;12.40;72.60;;;;;;5029541;28;88952;-41
2023/05/15 03:03:00;;;;;;;;;;;12.50;72.40;;;;;;5032668;28;87188;-42
2023/05/15 03:05:26;;;;;;;;;;;12.50;72.70;;;;;;5030767;28;87446;-41
2023/05/15 03:07:51;;;;;;;;;;;12.40;72.60;;;;;;5032253;28;87181;-42
2023/05/15 03:10:17;;;;;;;;;;;12.50;72.60;;;;;;5031406;28;87111;-41
2023/05/15 03:12:42;;;;;;;;;;;12.40;72.40;;;;;;5031922;28;87586;-42
2023/05/15 03:15:08;;;;;;;;;;;12.50;72.50;;;;;;5030836;28;89424;-42
2023/05/15 03:17:34;;;;;;;;;;;12.50;72.50;;;;;;5034775;28;86410;-41
2023/05/15 03:19:59;;;;;;;;;;;12.50;72.60;;;;;;5032175;28;87867;-42
2023/05/15 03:22:25;;;;;;;;;;;12.40;72.80;;;;;;5030604;28;87866;-41
2023/05/15 03:24:50;;;;;;;;;;;12.50;72.50;;;;;;5032193;28;88037;-42
2023/05/15 03:27:16;;;;;;;;;;;12.40;72.70;;;;;;5030015;28;88092;-42
2023/05/15 03:29:42;;;;;;;;;;;12.50;72.50;;;;;;5032895;28;87686;-42
2023/05/15 03:32:07;;;;;;;;;;;12.40;72.50;;;;;;5029599;28;87295;-41
2023/05/15 03:34:33;;;;;;;;;;;12.40;72.80;;;;;;5032907;28;89173;-42
2023/05/15 03:36:58;;;;;;;;;;;12.40;72.70;;;;;;5029873;28;87220;-42
2023/05/15 03:39:24;;;;;;;;;;;12.40;72.90;;;;;;5035612;28;87369;-42
2023/05/15 03:41:49;;;;;;;;;;;12.40;72.60;;;;;;5030594;28;86420;-42
2023/05/15 03:44:15;;;;;;;;;;;12.40;72.60;;;;;;5032519;27;87405;-42
2023/05/15 03:46:40;;;;;;;;;;;12.40;72.70;;;;;;5033178;28;88266;-41
2023/05/15 03:49:06;;;;;;;;;;;12.40;72.60;;;;;;5034964;28;87941;-41
2023/05/15 03:51:31;;;;;;;;;;;12.30;72.50;;;;;;5034377;28;88635;-42
2023/05/15 03:53:57;;;;;;;;;;;12.40;72.60;;;;;;5033943;28;88182;-41
2023/05/15 03:56:22;;;;;;;;;;;12.40;72.50;;;;;;5035071;28;87031;-42
2023/05/15 03:58:48;;;;;;;;;;;12.40;72.80;;;;;;5033590;28;87306;-42
2023/05/15 04:01:13;;;;;;;;;;;12.40;72.60;;;;;;5037432;28;87879;-42
2023/05/15 04:03:39;;;;;;;;;;;12.40;72.60;;;;;;5033400;28;87952;-42
2023/05/15 04:06:04;;;;;;;;;;;12.40;72.50;;;;;;5035703;28;87479;-42
2023/05/15 04:08:30;;;;;;;;;;;12.40;72.60;;;;;;5032953;28;87273;-42
2023/05/15 04:10:55;;;;;;;;;;;12.40;72.70;;;;;;5036165;28;87606;-42
2023/05/15 04:13:21;;;;;;;;;;;12.40;73.20;;;;;;5031594;28;88871;-42
2023/05/15 04:15:47;;;;;;;;;;;12.40;72.60;;;;;;5028651;28;87037;-41
2023/05/15 04:18:13;;;;;;;;;;;12.30;72.60;;;;;;5036030;28;89032;-42
2023/05/15 04:20:38;;;;;;;;;;;12.40;72.50;;;;;;5035081;28;88125;-42
2023/05/15 04:23:04;;;;;;;;;;;12.40;72.60;;;;;;5035690;28;87422;-42
2023/05/15 04:25:30;;;;;;;;;;;12.40;72.60;;;;;;5032338;28;88008;-42
2023/05/15 04:27:56;;;;;;;;;;;12.40;72.70;;;;;;5035035;28;87008;-42
2023/05/15 04:30:21;;;;;;;;;;;12.40;72.70;;;;;;5033627;28;87281;-41
2023/05/15 04:32:47;;;;;;;;;;;12.30;72.50;;;;;;5034163;28;88077;-42
2023/05/15 04:35:14;;;;;;;;;;;12.40;72.70;;;;;;5033728;28;87044;-42
2023/05/15 04:37:40;;;;;;;;;;;12.40;72.60;;;;;;5033506;28;88868;-42
2023/05/15 04:40:06;;;;;;;;;;;12.30;72.80;;;;;;5033596;28;87875;-42
2023/05/15 04:42:32;;;;;;;;;;;12.30;72.70;;;;;;5036500;28;87092;-42
2023/05/15 04:44:58;;;;;;;;;;;12.30;72.70;;;;;;5034084;28;87218;-42
2023/05/15 04:47:24;;;;;;;;;;;12.30;72.70;;;;;;5032532;28;87084;-42
2023/05/15 04:49:50;;;;;;;;;;;12.30;72.90;;;;;;5034511;27;87123;-42
2023/05/15 04:52:16;;;;;;;;;;;12.30;72.90;;;;;;5032701;28;88067;-42
2023/05/15 04:54:41;;;;;;;;;;;12.30;72.90;;;;;;5035055;28;86250;-42
2023/05/15 04:57:07;;;;;;;;;;;12.30;72.70;;;;;;5031382;28;87068;-41
2023/05/15 04:59:32;;;;;;;;;;;12.40;72.80;;;;;;5034366;28;88205;-42
2023/05/15 05:01:58;;;;;;;;;;;12.30;72.80;;;;;;5030962;28;88073;-42
2023/05/15 05:04:23;;;;;;;;;;;12.30;72.90;;;;;;5036807;28;88334;-42
2023/05/15 05:06:49;;;;;;;;;;;12.30;73.10;;;;;;5031009;28;87100;-42
2023/05/15 05:09:15;;;;;;;;;;;12.30;73.00;;;;;;5034599;28;87891;-42
2023/05/15 05:11:43;;;;;;;;;;;12.30;73.40;;;;;;5030951;28;89261;-42
2023/05/15 05:14:13;;;;;;;;;;;12.30;73.20;;;;;;5034208;28;87198;-42
2023/05/15 05:16:38;;;;;;;;;;;12.40;73.30;;;;;;5030635;27;88711;-42
2023/05/15 05:19:04;;;;;;;;;;;12.30;73.30;;;;;;5035140;28;87330;-41
2023/05/15 05:21:30;;;;;;;;;;;12.40;73.50;;;;;;5031039;28;87159;-42
2023/05/15 05:23:55;;;;;;;;;;;12.30;73.40;;;;;;5034427;28;87448;-42
2023/05/15 05:26:21;;;;;;;;;;;12.30;73.40;;;;;;5034030;28;89033;-42
2023/05/15 05:28:46;;;;;;;;;;;12.40;73.30;;;;;;5033150;28;88381;-41
2023/05/15 05:31:12;;;;;;;;;;;12.30;73.30;;;;;;5032296;28;88064;-42
2023/05/15 05:33:37;;;;;;;;;;;12.30;73.40;;;;;;5033193;28;87032;-42
2023/05/15 05:36:04;;;;;;;;;;;12.30;73.50;;;;;;5032934;28;87373;-42
2023/05/15 05:38:29;;;;;;;;;;;12.30;73.60;;;;;;5031751;28;87209;-42
2023/05/15 05:40:55;;;;;;;;;;;12.30;73.50;;;;;;5032624;28;87137;-41
2023/05/15 05:43:20;;;;;;;;;;;12.30;73.80;;;;;;5032224;28;89097;-42
2023/05/15 05:45:46;;;;;;;;;;;12.30;73.80;;;;;;5033156;28;88013;-42
2023/05/15 05:48:12;;;;;;;;;;;12.30;73.50;;;;;;5034150;28;87119;-42
2023/05/15 05:50:38;;;;;;;;;;;12.30;73.50;;;;;;5032640;28;90414;-42
2023/05/15 05:53:03;;;;;;;;;;;12.30;73.50;;;;;;5031000;28;87088;-42
2023/05/15 05:55:29;;;;;;;;;;;12.30;73.70;;;;;;5032277;28;90841;-41
2023/05/15 05:57:54;;;;;;;;;;;12.30;73.70;;;;;;5030179;28;87140;-41
2023/05/15 06:00:20;;;;;;;;;;;12.30;73.70;;;;;;5034153;27;87333;-42
2023/05/15 06:02:46;;;;;;;;;;;12.40;73.70;;;;;;5030813;27;87347;-41
2023/05/15 06:05:12;;;;;;;;;;;12.40;73.60;;;;;;5032636;28;89864;-42
2023/05/15 06:07:37;;;;;;;;;;;12.30;73.80;;;;;;5030941;28;86443;-41
2023/05/15 06:10:03;;;;;;;;;;;12.30;73.90;;;;;;5035577;28;88087;-42
2023/05/15 06:12:29;;;;;;;;;;;12.40;74.00;;;;;;5031218;28;87144;-42
2023/05/15 06:14:54;;;;;;;;;;;12.40;74.20;;;;;;5031639;28;88412;-41
2023/05/15 06:17:20;;;;;;;;;;;12.40;74.40;;;;;;5031694;28;87933;-41
2023/05/15 06:19:45;;;;;;;;;;;12.30;74.70;;;;;;5032139;28;87441;-42
2023/05/15 06:22:11;;;;;;;;;;;12.40;74.30;;;;;;5031944;28;87364;-41
2023/05/15 06:24:36;;;;;;;;;;;12.40;74.40;;;;;;5031471;28;88175;-42
2023/05/15 06:27:02;;;;;;;;;;;12.40;75.10;;;;;;5032868;28;87105;-42
2023/05/15 06:29:27;;;;;;;;;;;12.40;74.20;;;;;;5033500;28;87454;-42
2023/05/15 06:31:53;;;;;;;;;;;12.50;74.70;;;;;;5033887;28;86526;-42
2023/05/15 06:34:18;;;;;;;;;;;12.50;74.40;;;;;;5030686;28;87736;-42
2023/05/15 06:36:44;;;;;;;;;;;12.50;74.60;;;;;;5033584;28;87420;-41
2023/05/15 06:39:10;;;;;;;;;;;12.50;74.40;;;;;;5029676;28;88081;-41
2023/05/15 06:41:36;;;;;;;;;;;12.50;74.90;;;;;;5025644;28;88378;-41
2023/05/15 06:44:02;;;;;;;;;;;12.50;74.40;;;;;;5033282;28;87449;-41
2023/05/15 06:46:27;;;;;;;;;;;12.50;75.00;;;;;;5030426;28;87163;-42
2023/05/15 06:48:53;;;;;;;;;;;12.50;75.20;;;;;;5033818;28;87483;-41
2023/05/15 06:51:19;;;;;;;;;;;12.50;74.80;;;;;;5033403;28;88046;-42
2023/05/15 06:53:44;;;;;;;;;;;12.60;74.70;;;;;;5032767;28;87839;-41
2023/05/15 06:56:10;;;;;;;;;;;12.50;74.40;;;;;;5030994;28;87309;-42
2023/05/15 06:58:35;;;;;;;;;;;12.60;74.30;;;;;;5032508;28;87471;-42
2023/05/15 07:01:02;;;;;;;;;;;12.60;74.00;;;;;;5031859;28;87284;-42
2023/05/15 07:03:31;;;;;;;;;;;12.60;74.10;;;;;;5030709;28;90219;-41
2023/05/15 07:05:56;;;;;;;;;;;12.60;74.00;;;;;;5030867;28;86943;-42
2023/05/15 07:08:22;;;;;;;;;;;12.60;74.00;;;;;;5031437;28;87417;-41
2023/05/15 07:10:48;;;;;;;;;;;12.60;74.10;;;;;;5031309;28;88190;-41
2023/05/15 07:13:15;;;;;;;;;;;12.60;74.20;;;;;;5033929;28;87208;-42
2023/05/15 07:15:40;;;;;;;;;;;12.60;73.90;;;;;;5031922;28;87821;-41
2023/05/15 07:18:06;;;;;;;;;;;12.60;74.10;;;;;;5031169;28;87177;-42
2023/05/15 07:20:31;;;;;;;;;;;12.60;73.90;;;;;;5034755;28;87295;-42
2023/05/15 07:22:57;;;;;;;;;;;12.60;74.10;;;;;;5034025;28;87307;-42
2023/05/15 07:25:23;;;;;;;;;;;12.60;73.70;;;;;;5036603;28;87089;-41
2023/05/15 07:27:48;;;;;;;;;;;12.70;74.00;;;;;;5032596;28;88063;-41
2023/05/15 07:30:14;;;;;;;;;;;12.60;73.80;;;;;;5036445;28;89389;-41
2023/05/15 07:32:40;;;;;;;;;;;12.60;73.60;;;;;;5032752;28;87100;-42
2023/05/15 07:35:05;;;;;;;;;;;12.70;73.90;;;;;;5039165;27;89355;-41
2023/05/15 07:37:31;;;;;;;;;;;12.70;73.80;;;;;;5033255;28;87155;-42
2023/05/15 07:39:57;;;;;;;;;;;12.70;73.70;;;;;;5036259;28;86996;-41
2023/05/15 07:42:22;;;;;;;;;;;12.70;73.90;;;;;;5033170;28;89596;-41
2023/05/15 07:44:48;;;;;;;;;;;12.70;73.70;;;;;;5036557;28;86273;-41
2023/05/15 07:47:14;;;;;;;;;;;12.70;73.50;;;;;;5033752;28;87517;-41
2023/05/15 07:49:40;;;;;;;;;;;12.70;73.70;;;;;;5035053;28;89320;-41
2023/05/15 07:52:05;;;;;;;;;;;12.70;73.60;;;;;;5033588;28;88191;-41
2023/05/15 07:54:31;;;;;;;;;;;12.70;73.60;;;;;;5034497;28;88317;-42
2023/05/15 07:56:57;;;;;;;;;;;12.60;73.80;;;;;;5036929;28;87984;-41
2023/05/15 07:59:23;;;;;;;;;;;12.70;74.00;;;;;;5034152;28;88825;-42
2023/05/15 08:01:48;;;;;;;;;;;12.70;73.60;;;;;;5034596;28;88023;-41
2023/05/15 08:04:14;;;;;;;;;;;12.70;73.60;;;;;;5032604;28;87174;-42
2023/05/15 08:06:41;;;;;;;;;;;12.70;73.70;;;;;;5035456;28;87379;-41
2023/05/15 08:09:07;;;;;;;;;;;12.70;73.70;;;;;;5033295;28;88840;-41
2023/05/15 08:11:32;;;;;;;;;;;12.70;73.60;;;;;;5035432;28;87228;-41
2023/05/15 08:13:58;;;;;;;;;;;12.70;73.40;;;;;;5032672;28;87633;-41
2023/05/15 08:16:23;;;;;;;;;;;12.70;74.20;;;;;;5035248;28;88884;-42
2023/05/15 08:18:52;;;;;;;;;;;12.70;74.20;;;;;;5035342;28;86978;-42
2023/05/15 08:21:17;;;;;;;;;;;12.60;74.50;;;;;;5028220;28;89514;-42
2023/05/15 08:23:43;;;;;;;;;;;12.50;75.50;;;;;;5036268;28;87049;-42
2023/05/15 08:26:08;;;;;;;;;;;12.50;75.70;;;;;;5032176;27;87852;-42
2023/05/15 08:28:34;;;;;;;;;;;12.50;76.40;;;;;;5035319;28;87960;-41
2023/05/15 08:30:59;;;;;;;;;;;12.40;76.50;;;;;;5031894;27;87532;-41
2023/05/15 08:33:25;;;;;;;;;;;12.40;77.20;;;;;;5035395;28;87538;-41
2023/05/15 08:35:51;;;;;;;;;;;12.40;77.00;;;;;;5033073;28;89190;-42
2023/05/15 08:38:16;;;;;;;;;;;12.40;77.40;;;;;;5037716;28;87121;-41
2023/05/15 08:40:45;;;;;;;;;;;12.40;77.40;;;;;;5032600;28;89011;-41
2023/05/15 08:43:15;;;;;;;;;;;12.40;77.60;;;;;;5034310;28;87073;-42
2023/05/15 08:45:40;;;;;;;;;;;12.40;77.50;;;;;;5032875;28;87419;-42
2023/05/15 08:48:09;;;;;;;;;;;12.30;77.60;;;;;;5033879;28;88881;-42
2023/05/15 08:50:37;;;;;;;;;;;12.40;77.10;;;;;;5032663;28;87098;-41
2023/05/15 08:53:03;;;;;;;;;;;12.40;77.00;;;;;;5034576;28;86963;-41
2023/05/15 08:55:28;;;;;;;;;;;12.40;76.90;;;;;;5032146;28;87673;-42
2023/05/15 08:57:54;;;;;;;;;;;12.40;77.50;;;;;;5034029;28;86400;-41
2023/05/15 09:00:21;;;;;;;;;;;12.40;77.40;;;;;;5035074;27;88256;-41
2023/05/15 09:02:46;;;;;;;;;;;12.40;77.10;;;;;;5033153;28;87153;-41
2023/05/15 09:05:12;;;;;;;;;;;12.50;76.60;;;;;;5031700;28;88161;-41
2023/05/15 09:07:39;;;;;;;;;;;12.40;76.60;;;;;;5032715;28;87911;-41
2023/05/15 09:10:05;;;;;;;;;;;12.50;77.00;;;;;;5033157;28;87105;-42
2023/05/15 09:12:35;;;;;;;;;;;12.60;76.40;;;;;;5032372;28;89129;-41
2023/05/15 09:15:07;;;;;;;;;;;12.60;77.00;;;;;;5032463;28;89493;-41
2023/05/15 09:17:33;;;;;;;;;;;12.60;76.10;;;;;;5033192;28;87204;-42
2023/05/15 09:19:58;;;;;;;;;;;12.70;76.10;;;;;;5032749;28;87496;-42
2023/05/15 09:22:24;;;;;;;;;;;12.70;76.20;;;;;;5035916;28;87396;-42
2023/05/15 09:24:51;;;;;;;;;;;12.80;76.20;;;;;;5032846;28;87193;-42
2023/05/15 09:27:18;;;;;;;;;;;12.80;76.00;;;;;;5032245;28;87950;-41
2023/05/15 09:29:44;;;;;;;;;;;12.80;76.20;;;;;;5032449;28;88070;-41
2023/05/15 09:32:11;;;;;;;;;;;12.80;76.80;;;;;;5031952;28;89744;-42
2023/05/15 09:34:38;;;;;;;;;;;12.70;76.30;;;;;;5032133;28;88841;-42
2023/05/15 09:37:07;;;;;;;;;;;12.70;77.20;;;;;;5032296;28;87511;-42
2023/05/15 09:39:33;;;;;;;;;;;12.60;77.30;;;;;;5032564;28;87359;-41
2023/05/15 09:42:06;;;;;;;;;;;12.60;77.20;;;;;;5031883;28;88172;-41
2023/05/15 09:44:33;;;;;;;;;;;12.80;76.80;;;;;;5034492;28;87078;-42
2023/05/15 09:46:58;;;;;;;;;;;12.80;76.20;;;;;;5032708;28;88852;-42
2023/05/15 09:49:25;;;;;;;;;;;12.90;76.30;;;;;;5032277;28;87036;-42
2023/05/15 09:51:51;;;;;;;;;;;12.90;76.00;;;;;;5032541;28;88911;-42
2023/05/15 09:54:17;;;;;;;;;;;12.90;75.90;;;;;;5031036;28;89318;-42
2023/05/15 09:56:46;;;;;;;;;;;12.90;75.90;;;;;;5031811;28;87564;-41
2023/05/15 09:59:16;;;;;;;;;;;12.90;75.90;;;;;;5032319;27;87728;-41
2023/05/15 10:01:43;;;;;;;;;;;12.90;76.10;;;;;;5032204;28;87959;-41
2023/05/15 10:04:10;;;;;;;;;;;12.90;76.50;;;;;;5031186;28;87095;-41
2023/05/15 10:06:36;;;;;;;;;;;12.90;76.00;;;;;;5034501;28;88849;-42
2023/05/15 10:09:02;;;;;;;;;;;12.90;76.60;;;;;;5032198;28;87113;-42
2023/05/15 10:11:28;;;;;;;;;;;12.90;75.90;;;;;;5032430;28;87426;-41
2023/05/15 10:13:54;;;;;;;;;;;12.90;76.00;;;;;;5031880;28;87927;-41
2023/05/15 10:16:21;;;;;;;;;;;12.90;75.90;;;;;;5031699;28;87256;-42
2023/05/15 10:18:47;;;;;;;;;;;12.90;76.40;;;;;;5031909;28;88523;-42
2023/05/15 10:21:14;;;;;;;;;;;12.90;75.80;;;;;;5030761;28;87613;-42
2023/05/15 10:23:40;;;;;;;;;;;12.90;76.00;;;;;;5032416;28;87235;-41
2023/05/15 10:26:09;;;;;;;;;;;12.90;75.90;;;;;;5033302;28;87809;-42
2023/05/15 10:28:36;;;;;;;;;;;13.00;76.00;;;;;;5032379;28;87876;-42
2023/05/15 10:31:02;;;;;;;;;;;12.90;75.90;;;;;;5031196;28;87382;-41
2023/05/15 10:33:28;;;;;;;;;;;12.90;75.90;;;;;;5032262;28;88172;-41
2023/05/15 10:35:55;;;;;;;;;;;13.00;75.90;;;;;;5031215;28;86364;-42
2023/05/15 10:38:20;;;;;;;;;;;12.90;76.20;;;;;;5032864;27;87054;-42
2023/05/15 10:40:46;;;;;;;;;;;13.00;76.00;;;;;;5030369;28;87283;-41
2023/05/15 10:43:12;;;;;;;;;;;13.00;76.20;;;;;;5032851;28;88041;-42
2023/05/15 10:45:38;;;;;;;;;;;12.90;76.50;;;;;;5030115;28;87963;-42
2023/05/15 10:48:06;;;;;;;;;;;13.00;76.20;;;;;;5036018;28;88407;-41
2023/05/15 10:50:32;;;;;;;;;;;13.00;75.90;;;;;;5025636;28;87395;-42
2023/05/15 10:52:58;;;;;;;;;;;13.00;75.90;;;;;;5032967;28;87999;-42
2023/05/15 10:55:24;;;;;;;;;;;13.00;76.00;;;;;;5026813;27;87070;-42
2023/05/15 10:57:50;;;;;;;;;;;13.00;76.30;;;;;;5037184;28;87458;-42
2023/05/15 11:00:21;;;;;;;;;;;13.00;76.00;;;;;;5033623;28;87229;-41
2023/05/15 11:02:47;;;;;;;;;;;13.00;75.70;;;;;;5029142;28;87110;-42
2023/05/15 11:05:13;;;;;;;;;;;13.00;76.00;;;;;;5029107;28;86969;-42
2023/05/15 11:07:39;;;;;;;;;;;13.10;76.40;;;;;;5035919;28;90032;-41
2023/05/15 11:10:25;;;;;;;;;;;13.00;76.20;;;;;;5036367;28;87058;-41
2023/05/15 11:12:54;;;;;;;;;;;13.10;76.10;;;;;;5029932;27;88071;-41
2023/05/15 11:15:20;;;;;;;;;;;13.10;76.00;;;;;;5034863;28;87130;-42
2023/05/15 11:18:01;;;;;;;;;;;13.10;76.10;;;;;;5035507;28;87690;-41
2023/05/15 11:20:46;;;;;;;;;;;13.10;76.30;;;;;;5029216;28;87909;-42
2023/05/15 11:23:12;;;;;;;;;;;13.10;76.10;;;;;;5030917;27;87067;-42
2023/05/15 11:25:38;;;;;;;;;;;13.10;76.10;;;;;;5035750;28;87859;-42
2023/05/15 11:28:04;;;;;;;;;;;13.10;75.70;;;;;;5035002;28;88115;-41
2023/05/15 11:30:36;;;;;;;;;;;13.10;75.70;;;;;;5034910;28;87096;-41
2023/05/15 11:33:12;;;;;;;;;;;13.10;75.80;;;;;;5037668;28;89006;-42
2023/05/15 11:35:38;;;;;;;;;;;13.10;75.50;;;;;;5033147;28;87191;-41
2023/05/15 11:38:04;;;;;;;;;;;13.10;75.50;;;;;;5036602;28;87915;-41
2023/05/15 11:40:42;;;;;;;;;;;13.20;75.40;;;;;;5033106;28;87285;-41
2023/05/15 11:43:22;;;;;;;;;;;13.20;75.60;;;;;;5030342;28;87107;-42
2023/05/15 11:45:50;;;;;;;;;;;13.20;75.80;;;;;;5033985;28;87393;-42
2023/05/15 11:48:16;;;;;;;;;;;13.20;75.50;;;;;;5034442;28;88012;-42
2023/05/15 11:50:42;;;;;;;;;;;13.20;75.70;;;;;;5034227;28;86274;-41
2023/05/15 11:53:08;;;;;;;;;;;13.20;76.10;;;;;;5035069;28;87355;-41
2023/05/15 11:55:35;;;;;;;;;;;13.00;77.20;;;;;;5036253;28;89490;-41
2023/05/15 11:58:01;;;;;;;;;;;12.90;77.10;;;;;;5033968;28;87786;-42
2023/05/15 12:00:27;;;;;;;;;;;12.90;77.60;;;;;;5034209;28;89157;-42
2023/05/15 12:02:52;;;;;;;;;;;12.90;78.00;;;;;;5034051;28;87328;-41
2023/05/15 12:05:18;;;;;;;;;;;13.00;77.70;;;;;;5034674;27;87452;-41
2023/05/15 12:07:43;;;;;;;;;;;13.00;77.60;;;;;;5033151;28;87932;-41
2023/05/15 12:10:10;;;;;;;;;;;12.90;77.90;;;;;;5035932;28;87286;-42
2023/05/15 12:12:38;;;;;;;;;;;12.90;78.00;;;;;;5033390;28;88910;-41
2023/05/15 12:15:04;;;;;;;;;;;12.90;78.00;;;;;;5035795;28;87283;-41
2023/05/15 12:17:30;;;;;;;;;;;12.90;78.30;;;;;;5035528;28;87107;-41
2023/05/15 12:19:56;;;;;;;;;;;12.90;78.50;;;;;;5034992;28;87945;-41
2023/05/15 12:22:22;;;;;;;;;;;12.90;78.70;;;;;;5031565;28;88140;-41
2023/05/15 12:24:47;;;;;;;;;;;12.90;78.90;;;;;;5031609;28;88360;-42
2023/05/15 12:27:13;;;;;;;;;;;12.90;79.00;;;;;;5035642;28;88063;-42
2023/05/15 12:29:39;;;;;;;;;;;12.90;79.10;;;;;;5032046;28;87154;-41
2023/05/15 12:32:05;;;;;;;;;;;13.00;79.30;;;;;;5034855;28;88678;-41
2023/05/15 12:34:31;;;;;;;;;;;13.00;79.50;;;;;;5031805;28;89097;-41
2023/05/15 12:36:58;;;;;;;;;;;13.00;79.70;;;;;;5037857;28;87063;-42
2023/05/15 12:39:24;;;;;;;;;;;13.00;79.90;;;;;;5032349;28;86448;-42
2023/05/15 12:41:53;;;;;;;;;;;13.00;79.70;;;;;;5035124;28;87538;-42
2023/05/15 12:44:18;;;;;;;;;;;13.00;79.70;;;;;;5032768;28;87416;-41
2023/05/15 12:46:45;;;;;;;;;;;13.00;79.60;;;;;;5033488;28;88755;-41
2023/05/15 12:49:10;;;;;;;;;;;13.00;79.60;;;;;;5032815;28;87046;-42
2023/05/15 12:51:41;;;;;;;;;;;13.00;79.60;;;;;;5033888;28;87414;-42
2023/05/15 12:54:15;;;;;;;;;;;13.10;79.90;;;;;;5031704;28;87872;-42
2023/05/15 12:56:40;;;;;;;;;;;13.10;79.90;;;;;;5026890;28;87254;-41
2023/05/15 12:59:06;;;;;;;;;;;13.10;80.10;;;;;;5037749;28;87414;-42
2023/05/15 13:01:32;;;;;;;;;;;13.10;80.20;;;;;;5031297;28;87139;-41
2023/05/15 13:03:57;;;;;;;;;;;13.10;80.20;;;;;;5034734;28;88974;-42
2023/05/15 13:06:23;;;;;;;;;;;13.10;80.70;;;;;;5031561;28;89186;-42
2023/05/15 13:08:49;;;;;;;;;;;13.20;80.30;;;;;;5033831;28;87122;-41
2023/05/15 13:11:15;;;;;;;;;;;13.20;80.40;;;;;;5031587;28;89353;-41
2023/05/15 13:13:42;;;;;;;;;;;13.20;80.60;;;;;;5033007;28;89493;-42
2023/05/15 13:16:16;;;;;;;;;;;13.20;80.60;;;;;;5032321;28;87277;-42
2023/05/15 13:18:42;;;;;;;;;;;13.20;80.70;;;;;;5034102;27;87506;-42
2023/05/15 13:21:07;;;;;;;;;;;13.30;80.80;;;;;;5034215;28;88069;-42
2023/05/15 13:23:33;;;;;;;;;;;13.30;80.80;;;;;;5034115;28;87427;-42
2023/05/15 13:25:58;;;;;;;;;;;13.30;80.60;;;;;;5032083;28;88192;-42
2023/05/15 13:28:24;;;;;;;;;;;13.30;80.70;;;;;;5033876;28;86356;-42
2023/05/15 13:30:50;;;;;;;;;;;13.30;80.70;;;;;;5032565;28;87158;-42
2023/05/15 13:33:15;;;;;;;;;;;13.30;80.70;;;;;;5032576;28;88104;-42
2023/05/15 13:35:41;;;;;;;;;;;13.40;80.90;;;;;;5033043;28;88033;-41
2023/05/15 13:38:07;;;;;;;;;;;13.40;80.80;;;;;;5032141;28;90055;-41
2023/05/15 13:40:35;;;;;;;;;;;13.40;81.40;;;;;;5033229;28;87797;-42
2023/05/15 13:43:01;;;;;;;;;;;13.40;80.80;;;;;;5034654;28;87837;-42
2023/05/15 13:45:27;;;;;;;;;;;13.40;80.50;;;;;;5032823;28;88138;-42
2023/05/15 13:47:53;;;;;;;;;;;13.50;80.70;;;;;;5031827;28;87011;-42
2023/05/15 13:50:18;;;;;;;;;;;13.50;80.50;;;;;;5033765;27;87322;-42
2023/05/15 13:52:45;;;;;;;;;;;13.50;80.50;;;;;;5031635;28;87278;-42
2023/05/15 13:55:10;;;;;;;;;;;13.50;80.40;;;;;;5033971;28;87172;-42
2023/05/15 13:57:36;;;;;;;;;;;13.50;80.50;;;;;;5031262;28;87692;-42
2023/05/15 14:00:05;;;;;;;;;;;13.60;80.40;;;;;;5033352;28;90041;-42
2023/05/15 14:02:31;;;;;;;;;;;13.60;80.40;;;;;;5031236;28;87108;-42
2023/05/15 14:04:56;;;;;;;;;;;13.60;80.50;;;;;;5036809;28;87508;-42
2023/05/15 14:07:22;;;;;;;;;;;13.60;80.30;;;;;;5030438;28;87138;-41
2023/05/15 14:09:48;;;;;;;;;;;13.60;80.30;;;;;;5034096;28;88961;-42
2023/05/15 14:12:14;;;;;;;;;;;13.60;80.20;;;;;;5030642;28;88055;-42